createdAt,value
2022-12-26T00:01:06.022Z,8.96
2022-12-26T00:03:33.458Z,8.94
2022-12-26T00:06:00.756Z,9.01
2022-12-26T00:08:28.127Z,8.93
2022-12-26T00:10:55.592Z,8.88
2022-12-26T00:13:40.264Z,8.84
2022-12-26T00:16:14.449Z,8.84
2022-12-26T00:18:42.142Z,8.85
2022-12-26T00:21:11.441Z,8.81
2022-12-26T00:23:41.203Z,8.82
2022-12-26T00:26:19.849Z,8.85
2022-12-26T00:28:47.548Z,8.79
2022-12-26T00:31:18.424Z,8.82
2022-12-26T00:33:46.370Z,8.79
2022-12-26T00:36:29.673Z,8.76
2022-12-26T00:38:58.764Z,8.82
2022-12-26T00:41:26.485Z,8.80
2022-12-26T00:43:54.023Z,8.79
2022-12-26T00:46:26.138Z,8.82
2022-12-26T00:48:54.024Z,8.78
2022-12-26T00:51:21.734Z,8.76
2022-12-26T00:53:49.486Z,8.73
2022-12-26T00:56:16.890Z,8.71
2022-12-26T00:58:44.489Z,8.77
2022-12-26T01:01:22.104Z,8.74
2022-12-26T01:03:50.230Z,8.70
2022-12-26T01:06:17.873Z,8.74
2022-12-26T01:08:45.246Z,8.77
2022-12-26T01:11:15.640Z,8.74
2022-12-26T01:13:43.310Z,8.73
2022-12-26T01:16:10.814Z,8.73
2022-12-26T01:18:38.244Z,8.71
2022-12-26T01:21:08.517Z,8.68
2022-12-26T01:23:36.133Z,8.67
2022-12-26T01:26:16.350Z,8.68
2022-12-26T01:28:49.210Z,8.63
2022-12-26T01:31:16.866Z,8.62
2022-12-26T01:33:44.597Z,8.66
2022-12-26T01:36:12.384Z,8.57
2022-12-26T01:38:39.798Z,8.60
2022-12-26T01:41:22.266Z,8.56
2022-12-26T01:43:59.804Z,8.57
2022-12-26T01:46:39.386Z,8.55
2022-12-26T01:49:15.367Z,8.56
2022-12-26T01:51:47.437Z,8.55
2022-12-26T01:54:40.220Z,8.56
2022-12-26T01:57:06.764Z,8.56
2022-12-26T01:59:37.424Z,8.57
2022-12-26T02:02:05.742Z,8.54
2022-12-26T02:04:57.757Z,8.56
2022-12-26T02:07:26.584Z,8.54
2022-12-26T02:09:54.179Z,8.49
2022-12-26T02:12:35.325Z,8.54
2022-12-26T02:15:09.179Z,8.54
2022-12-26T02:17:37.844Z,8.59
2022-12-26T02:20:27.783Z,8.59
2022-12-26T02:23:32.192Z,8.56
2022-12-26T02:26:18.007Z,8.57
2022-12-26T02:29:03.809Z,8.56
2022-12-26T02:32:03.386Z,8.50
2022-12-26T02:34:39.246Z,8.52
2022-12-26T02:37:38.949Z,8.52
2022-12-26T02:40:24.972Z,8.52
2022-12-26T02:43:00.112Z,8.56
2022-12-26T02:46:05.023Z,8.54
2022-12-26T02:49:07.952Z,8.48
2022-12-26T02:52:15.646Z,8.52
2022-12-26T02:55:01.594Z,8.50
2022-12-26T02:57:59.948Z,8.48
2022-12-26T03:00:46.835Z,8.54
2022-12-26T03:03:38.279Z,8.50
2022-12-26T03:06:30.259Z,8.45
2022-12-26T03:09:18.771Z,8.40
2022-12-26T03:12:10.316Z,8.32
2022-12-26T03:15:03.111Z,8.35
2022-12-26T03:17:36.583Z,8.32
2022-12-26T03:20:10.340Z,8.35
2022-12-26T03:22:46.710Z,8.37
2022-12-26T03:26:01.152Z,8.32
2022-12-26T03:28:28.726Z,8.35
2022-12-26T03:30:59.730Z,8.36
2022-12-26T03:33:52.218Z,8.37
2022-12-26T03:36:25.900Z,8.35
2022-12-26T03:39:19.376Z,8.37
2022-12-26T03:42:21.435Z,8.35
2022-12-26T03:45:16.840Z,8.35
2022-12-26T03:48:24.301Z,8.41
2022-12-26T03:51:20.757Z,8.39
2022-12-26T03:54:14.320Z,8.40
2022-12-26T03:57:06.540Z,8.49
2022-12-26T04:00:08.556Z,8.42
2022-12-26T04:02:59.951Z,8.39
2022-12-26T04:05:46.972Z,8.37
2022-12-26T04:08:39.928Z,8.37
2022-12-26T04:11:33.821Z,8.42
2022-12-26T04:14:30.090Z,8.34
2022-12-26T04:17:35.632Z,8.30
2022-12-26T04:20:16.565Z,8.24
2022-12-26T04:23:09.632Z,8.27
2022-12-26T04:26:16.678Z,8.28
2022-12-26T04:29:03.068Z,8.22
2022-12-26T04:31:55.007Z,8.28
2022-12-26T04:34:59.606Z,8.33
2022-12-26T04:37:47.646Z,8.23
2022-12-26T04:40:39.351Z,8.24
2022-12-26T04:43:48.857Z,8.20
2022-12-26T04:46:16.949Z,8.23
2022-12-26T04:49:06.173Z,8.23
2022-12-26T04:51:34.453Z,8.22
2022-12-26T04:54:02.068Z,8.14
2022-12-26T04:56:29.533Z,8.18
2022-12-26T04:58:57.076Z,8.17
2022-12-26T05:01:43.360Z,8.20
2022-12-26T05:04:33.823Z,8.15
2022-12-26T05:07:21.831Z,8.12
2022-12-26T05:09:51.602Z,8.18
2022-12-26T05:12:19.654Z,8.11
2022-12-26T05:14:47.505Z,8.11
2022-12-26T05:17:33.754Z,8.12
2022-12-26T05:20:19.647Z,8.05
2022-12-26T05:23:06.167Z,8.04
2022-12-26T05:25:58.415Z,8.10
2022-12-26T05:28:44.112Z,8.15
2022-12-26T05:31:16.695Z,8.17
2022-12-26T05:34:03.138Z,8.11
2022-12-26T05:36:35.926Z,8.07
2022-12-26T05:39:04.578Z,8.13
2022-12-26T05:41:31.990Z,8.09
2022-12-26T05:43:59.454Z,8.14
2022-12-26T05:46:27.572Z,8.18
2022-12-26T05:48:55.012Z,8.12
2022-12-26T05:51:22.424Z,8.12
2022-12-26T05:53:50.673Z,8.31
2022-12-26T05:56:18.938Z,8.13
2022-12-26T05:58:47.128Z,8.22
2022-12-26T06:01:19.931Z,8.17
2022-12-26T06:03:49.678Z,8.14
2022-12-26T06:06:18.461Z,8.16
2022-12-26T06:08:51.043Z,8.07
2022-12-26T06:11:19.474Z,8.12
2022-12-26T06:13:46.962Z,8.20
2022-12-26T06:16:16.954Z,8.15
2022-12-26T06:18:44.708Z,8.04
2022-12-26T06:21:17.076Z,8.08
2022-12-26T06:23:44.663Z,8.05
2022-12-26T06:26:12.964Z,8.07
2022-12-26T06:28:42.137Z,8.05
2022-12-26T06:31:16.139Z,7.96
2022-12-26T06:33:44.048Z,8.05
2022-12-26T06:36:17.076Z,8.04
2022-12-26T06:38:44.635Z,8.19
2022-12-26T06:41:17.992Z,8.16
2022-12-26T06:43:45.917Z,8.13
2022-12-26T06:46:16.301Z,8.13
2022-12-26T06:48:43.971Z,8.03
2022-12-26T06:51:14.175Z,8.01
2022-12-26T06:53:42.009Z,8.05
2022-12-26T06:56:16.020Z,8.07
2022-12-26T06:58:43.707Z,8.06
2022-12-26T07:01:14.225Z,8.08
2022-12-26T07:03:50.476Z,8.05
2022-12-26T07:06:28.054Z,8.15
2022-12-26T07:09:01.175Z,8.12
2022-12-26T07:11:31.101Z,8.04
2022-12-26T07:13:58.875Z,8.11
2022-12-26T07:16:26.989Z,8.19
2022-12-26T07:18:58.852Z,8.14
2022-12-26T07:21:26.432Z,8.05
2022-12-26T07:23:55.277Z,8.05
2022-12-26T07:26:24.471Z,8.13
2022-12-26T07:28:56.565Z,8.20
2022-12-26T07:31:25.331Z,8.10
2022-12-26T07:33:54.595Z,8.17
2022-12-26T07:36:22.575Z,8.08
2022-12-26T07:38:49.913Z,7.98
2022-12-26T07:41:35.832Z,8.04
2022-12-26T07:44:04.011Z,8.04
2022-12-26T07:46:31.733Z,8.11
2022-12-26T07:48:59.168Z,8.14
2022-12-26T07:51:26.822Z,8.22
2022-12-26T07:53:54.319Z,8.23
2022-12-26T07:56:21.951Z,8.27
2022-12-26T07:58:50.337Z,8.20
2022-12-26T08:01:18.780Z,8.30
2022-12-26T08:03:49.453Z,8.29
2022-12-26T08:06:18.375Z,8.17
2022-12-26T08:08:51.175Z,8.23
2022-12-26T08:11:23.875Z,8.23
2022-12-26T08:13:52.257Z,8.25
2022-12-26T08:16:19.941Z,8.20
2022-12-26T08:18:47.440Z,8.25
2022-12-26T08:21:14.897Z,8.29
2022-12-26T08:23:42.414Z,8.27
2022-12-26T08:26:12.931Z,8.27
2022-12-26T08:28:42.559Z,8.36
2022-12-26T08:31:10.894Z,8.50
2022-12-26T08:33:38.358Z,8.29
2022-12-26T08:36:08.292Z,8.37
2022-12-26T08:38:36.663Z,8.32
2022-12-26T08:41:04.321Z,8.26
2022-12-26T08:44:03.640Z,8.38
2022-12-26T08:46:21.332Z,8.40
2022-12-26T08:48:50.161Z,8.43
2022-12-26T08:51:23.623Z,8.41
2022-12-26T08:53:53.081Z,8.41
2022-12-26T08:56:23.739Z,8.46
2022-12-26T08:58:51.146Z,8.55
2022-12-26T09:01:21.956Z,8.46
2022-12-26T09:03:53.697Z,8.50
2022-12-26T09:06:21.720Z,8.49
2022-12-26T09:08:49.320Z,8.50
2022-12-26T09:11:19.235Z,8.50
2022-12-26T09:13:47.219Z,8.50
2022-12-26T09:16:17.684Z,8.60
2022-12-26T09:18:46.247Z,8.56
2022-12-26T09:21:16.035Z,8.50
2022-12-26T09:23:44.084Z,8.61
2022-12-26T09:26:20.184Z,8.60
2022-12-26T09:28:47.728Z,8.58
2022-12-26T09:31:17.821Z,8.61
2022-12-26T09:33:47.259Z,8.70
2022-12-26T09:36:18.150Z,8.77
2022-12-26T09:38:47.183Z,8.66
2022-12-26T09:41:29.687Z,8.81
2022-12-26T09:44:21.886Z,8.86
2022-12-26T09:47:04.239Z,8.91
2022-12-26T09:49:44.053Z,8.83
2022-12-26T09:52:37.607Z,8.86
2022-12-26T09:55:35.840Z,8.87
2022-12-26T09:58:18.169Z,8.95
2022-12-26T10:00:56.073Z,8.85
2022-12-26T10:03:24.748Z,8.87
2022-12-26T10:06:00.985Z,8.94
2022-12-26T10:09:05.535Z,9.03
2022-12-26T10:11:45.050Z,8.94
2022-12-26T10:14:40.721Z,8.97
2022-12-26T10:17:26.606Z,8.94
2022-12-26T10:20:06.134Z,8.96
2022-12-26T10:22:41.518Z,9.00
2022-12-26T10:25:18.928Z,8.95
2022-12-26T10:27:49.948Z,9.02
2022-12-26T10:30:31.389Z,8.91
2022-12-26T10:33:04.729Z,9.16
2022-12-26T10:35:40.766Z,9.07
2022-12-26T10:38:32.507Z,9.04
2022-12-26T10:41:11.368Z,9.12
2022-12-26T10:43:44.817Z,9.18
2022-12-26T10:46:37.909Z,9.21
2022-12-26T10:49:08.123Z,9.27
2022-12-26T10:51:38.101Z,9.26
2022-12-26T10:54:14.840Z,9.27
2022-12-26T10:56:42.853Z,9.26
2022-12-26T10:59:16.750Z,9.22
2022-12-26T11:01:47.829Z,9.20
2022-12-26T11:04:44.402Z,9.30
2022-12-26T11:07:12.822Z,9.35
2022-12-26T11:09:43.941Z,9.47
2022-12-26T11:12:20.440Z,9.32
2022-12-26T11:14:48.170Z,9.33
2022-12-26T11:17:27.149Z,9.28
2022-12-26T11:20:26.317Z,9.33
2022-12-26T11:22:54.009Z,9.29
2022-12-26T11:25:35.118Z,9.41
2022-12-26T11:28:39.185Z,9.31
2022-12-26T11:31:18.517Z,9.33
2022-12-26T11:33:46.667Z,9.26
2022-12-26T11:36:26.275Z,9.42
2022-12-26T11:39:00.652Z,9.38
2022-12-26T11:41:36.624Z,9.39
2022-12-26T11:44:19.377Z,9.41
2022-12-26T11:47:00.457Z,9.42
2022-12-26T11:49:33.785Z,9.32
2022-12-26T11:52:22.821Z,9.42
2022-12-26T11:54:51.261Z,9.37
2022-12-26T11:57:20.456Z,9.41
2022-12-26T11:59:49.343Z,9.31
2022-12-26T12:02:26.161Z,9.32
2022-12-26T12:05:00.770Z,9.35
2022-12-26T12:07:59.583Z,9.30
2022-12-26T12:10:47.895Z,9.33
2022-12-26T12:13:38.581Z,9.27
2022-12-26T12:16:40.271Z,9.29
2022-12-26T12:19:36.013Z,9.29
2022-12-26T12:22:18.448Z,9.41
2022-12-26T12:25:03.865Z,9.39
2022-12-26T12:27:35.391Z,9.37
2022-12-26T12:30:02.738Z,9.32
2022-12-26T12:32:59.267Z,9.30
2022-12-26T12:35:48.556Z,9.28
2022-12-26T12:38:24.788Z,9.31
2022-12-26T12:41:04.322Z,9.31
2022-12-26T12:43:37.340Z,9.31
2022-12-26T12:46:23.041Z,9.32
2022-12-26T12:49:11.178Z,9.24
2022-12-26T12:51:52.459Z,9.28
2022-12-26T12:54:50.751Z,9.38
2022-12-26T12:57:27.273Z,9.32
2022-12-26T13:00:17.857Z,9.36
2022-12-26T13:03:10.448Z,9.40
2022-12-26T13:05:59.696Z,9.43
2022-12-26T13:08:37.327Z,9.39
2022-12-26T13:11:14.868Z,9.42
2022-12-26T13:13:54.325Z,9.46
2022-12-26T13:16:41.501Z,9.43
2022-12-26T13:19:24.444Z,9.40
2022-12-26T13:21:57.600Z,9.45
2022-12-26T13:24:40.673Z,9.32
2022-12-26T13:27:19.652Z,9.34
2022-12-26T13:29:48.914Z,9.32
2022-12-26T13:32:25.594Z,9.37
2022-12-26T13:34:55.455Z,9.31
2022-12-26T13:37:53.994Z,9.35
2022-12-26T13:40:27.529Z,9.32
2022-12-26T13:43:39.017Z,9.44
2022-12-26T13:46:38.358Z,9.38
2022-12-26T13:49:26.070Z,9.41
2022-12-26T13:51:55.965Z,9.42
2022-12-26T13:54:26.529Z,9.38
2022-12-26T13:57:20.874Z,9.44
2022-12-26T14:00:17.910Z,9.49
2022-12-26T14:05:48.032Z,9.47
2022-12-26T14:08:34.289Z,9.52
2022-12-26T14:11:23.168Z,9.54
2022-12-26T14:13:56.510Z,9.49
2022-12-26T14:16:29.716Z,9.46
2022-12-26T14:19:14.735Z,9.36
2022-12-26T14:22:01.076Z,9.34
2022-12-26T14:24:43.352Z,9.33
2022-12-26T14:27:20.254Z,9.36
2022-12-26T14:29:59.091Z,9.37
2022-12-26T14:32:37.165Z,9.31
2022-12-26T14:35:23.052Z,9.35
2022-12-26T14:37:58.849Z,9.29
2022-12-26T14:40:34.807Z,9.32
2022-12-26T14:43:11.427Z,9.30
2022-12-26T14:45:41.792Z,9.37
2022-12-26T14:48:15.273Z,9.36
2022-12-26T14:50:48.652Z,9.29
2022-12-26T14:53:25.045Z,9.31
2022-12-26T14:56:01.495Z,9.23
2022-12-26T14:58:31.635Z,9.31
2022-12-26T15:01:15.628Z,9.28
2022-12-26T15:04:15.017Z,9.20
2022-12-26T15:06:54.199Z,9.23
2022-12-26T15:09:36.548Z,9.21
2022-12-26T15:12:34.444Z,9.19
2022-12-26T15:15:32.802Z,9.18
2022-12-26T15:18:11.371Z,9.17
2022-12-26T15:20:44.730Z,9.17
2022-12-26T15:23:33.011Z,9.17
2022-12-26T15:26:33.418Z,9.18
2022-12-26T15:29:25.635Z,9.15
2022-12-26T15:32:13.165Z,9.13
2022-12-26T15:35:06.101Z,9.11
2022-12-26T15:37:54.457Z,9.12
2022-12-26T15:40:29.276Z,9.14
2022-12-26T15:43:17.928Z,9.09
2022-12-26T15:45:48.584Z,9.06
2022-12-26T15:49:00.798Z,9.00
2022-12-26T15:51:53.874Z,9.06
2022-12-26T15:54:41.454Z,9.03
2022-12-26T15:57:19.442Z,9.04
2022-12-26T15:59:59.769Z,9.04
2022-12-26T16:02:27.318Z,9.06
2022-12-26T16:05:23.522Z,9.06
2022-12-26T16:08:04.152Z,9.00
2022-12-26T16:10:34.022Z,9.01
2022-12-26T16:13:23.485Z,9.00
2022-12-26T16:15:56.375Z,8.97
2022-12-26T16:18:32.523Z,8.96
2022-12-26T16:21:22.936Z,8.99
2022-12-26T16:23:52.669Z,8.99
2022-12-26T16:26:26.904Z,9.02
2022-12-26T16:28:56.417Z,9.06
2022-12-26T16:31:26.501Z,9.08
2022-12-26T16:33:57.318Z,9.06
2022-12-26T16:36:29.182Z,9.00
2022-12-26T16:38:56.736Z,8.99
2022-12-26T16:41:26.646Z,8.98
2022-12-26T16:43:56.743Z,8.96
2022-12-26T16:46:28.929Z,8.94
2022-12-26T16:49:01.018Z,8.97
2022-12-26T16:51:40.570Z,8.97
2022-12-26T16:54:15.621Z,8.97
2022-12-26T16:56:43.520Z,8.97
2022-12-26T16:59:18.353Z,8.96
2022-12-26T17:01:57.641Z,8.96
2022-12-26T17:04:27.693Z,8.91
2022-12-26T17:06:59.313Z,8.93
2022-12-26T17:09:29.620Z,8.92
2022-12-26T17:12:01.487Z,8.93
2022-12-26T17:14:33.419Z,8.92
2022-12-26T17:17:02.178Z,8.92
2022-12-26T17:19:31.973Z,8.93
2022-12-26T17:22:28.706Z,8.92
2022-12-26T17:25:34.414Z,8.94
2022-12-26T17:28:07.724Z,8.93
2022-12-26T17:30:53.794Z,8.92
2022-12-26T17:33:27.173Z,8.92
2022-12-26T17:36:52.547Z,8.95
2022-12-26T17:38:50.825Z,8.94
2022-12-26T17:41:20.727Z,8.94
2022-12-26T17:43:48.981Z,8.96
2022-12-26T17:46:17.617Z,9.01
2022-12-26T17:48:45.237Z,9.05
2022-12-26T17:51:16.525Z,9.08
2022-12-26T17:53:49.469Z,9.04
2022-12-26T17:56:24.412Z,9.05
2022-12-26T17:58:52.250Z,9.02
2022-12-26T18:01:21.890Z,9.04
2022-12-26T18:03:52.067Z,9.02
2022-12-26T18:06:19.986Z,9.01
2022-12-26T18:08:47.577Z,9.06
2022-12-26T18:11:14.935Z,9.08
2022-12-26T18:13:44.358Z,9.08
2022-12-26T18:16:17.360Z,9.06
2022-12-26T18:18:46.655Z,9.06
2022-12-26T18:21:15.937Z,9.06
2022-12-26T18:23:43.465Z,9.12
2022-12-26T18:26:19.773Z,9.04
2022-12-26T18:28:49.988Z,9.05
2022-12-26T18:31:17.415Z,9.06
2022-12-26T18:33:44.848Z,9.07
2022-12-26T18:36:13.777Z,9.07
2022-12-26T18:38:41.555Z,9.04
2022-12-26T18:41:14.137Z,9.03
2022-12-26T18:43:41.550Z,8.97
2022-12-26T18:46:20.854Z,8.96
2022-12-26T18:48:48.967Z,8.94
2022-12-26T18:51:16.949Z,8.92
2022-12-26T18:53:44.369Z,8.90
2022-12-26T18:56:20.767Z,8.96
2022-12-26T18:58:54.088Z,8.93
2022-12-26T19:01:26.040Z,8.96
2022-12-26T19:03:54.043Z,8.95
2022-12-26T19:06:24.846Z,9.04
2022-12-26T19:08:52.376Z,9.03
2022-12-26T19:11:19.850Z,9.01
2022-12-26T19:13:47.237Z,8.94
2022-12-26T19:16:15.479Z,8.90
2022-12-26T19:18:42.866Z,8.85
2022-12-26T19:21:14.132Z,8.82
2022-12-26T19:23:42.346Z,8.82
2022-12-26T19:26:15.927Z,8.83
2022-12-26T19:28:43.385Z,8.83
2022-12-26T19:31:13.689Z,8.85
2022-12-26T19:33:41.087Z,8.85
2022-12-26T19:36:08.687Z,8.86
2022-12-26T19:38:36.317Z,8.81
2022-12-26T19:41:09.724Z,8.81
2022-12-26T19:43:37.990Z,8.77
2022-12-26T19:46:11.655Z,8.79
2022-12-26T19:48:39.636Z,8.82
2022-12-26T19:51:11.304Z,8.82
2022-12-26T19:53:40.640Z,8.83
2022-12-26T19:56:16.824Z,8.80
2022-12-26T19:58:45.552Z,8.84
2022-12-26T20:01:19.136Z,8.82
2022-12-26T20:03:47.458Z,8.80
2022-12-26T20:06:23.403Z,8.80
2022-12-26T20:08:52.112Z,8.82
2022-12-26T20:11:25.966Z,8.95
2022-12-26T20:13:53.722Z,8.84
2022-12-26T20:17:02.988Z,8.83
2022-12-26T20:19:11.300Z,8.87
2022-12-26T20:21:38.745Z,8.83
2022-12-26T20:24:06.269Z,8.82
2022-12-26T20:26:33.609Z,8.83
2022-12-26T20:29:01.898Z,8.82
2022-12-26T20:31:32.740Z,8.81
2022-12-26T20:34:00.310Z,8.81
2022-12-26T20:36:30.189Z,8.78
2022-12-26T20:39:00.420Z,8.80
2022-12-26T20:41:29.050Z,8.78
2022-12-26T20:43:57.079Z,8.73
2022-12-26T20:46:27.902Z,8.76
2022-12-26T20:48:55.735Z,8.78
2022-12-26T20:51:30.179Z,8.84
2022-12-26T20:54:03.107Z,8.79
2022-12-26T20:56:30.810Z,8.79
2022-12-26T20:58:59.698Z,8.77
2022-12-26T21:01:28.320Z,8.82
2022-12-26T21:03:57.228Z,8.82
2022-12-26T21:06:28.853Z,8.83
2022-12-26T21:08:57.635Z,8.84
2022-12-26T21:11:27.044Z,8.85
2022-12-26T21:13:59.238Z,8.81
2022-12-26T21:16:31.676Z,8.81
2022-12-26T21:18:59.250Z,8.87
2022-12-26T21:21:32.703Z,8.88
2022-12-26T21:24:07.039Z,8.87
2022-12-26T21:26:39.926Z,8.85
2022-12-26T21:29:10.736Z,8.84
2022-12-26T21:31:38.828Z,8.82
2022-12-26T21:34:06.237Z,8.77
2022-12-26T21:36:35.340Z,8.77
2022-12-26T21:39:10.149Z,8.84
2022-12-26T21:41:38.051Z,8.85
2022-12-26T21:44:05.454Z,8.84
2022-12-26T21:46:32.847Z,8.79
2022-12-26T21:49:01.180Z,8.81
2022-12-26T21:51:29.713Z,8.76
2022-12-26T21:54:16.924Z,8.67
2022-12-26T21:56:45.249Z,8.68
2022-12-26T21:59:30.895Z,8.67
2022-12-26T22:01:58.388Z,8.61
2022-12-26T22:04:26.252Z,8.60
2022-12-26T22:06:53.609Z,8.59
2022-12-26T22:09:21.695Z,8.56
2022-12-26T22:12:07.366Z,8.49
2022-12-26T22:14:34.696Z,8.48
2022-12-26T22:17:02.015Z,8.40
2022-12-26T22:19:29.475Z,8.44
2022-12-26T22:21:56.842Z,8.39
2022-12-26T22:24:24.836Z,8.38
2022-12-26T22:26:52.626Z,8.37
2022-12-26T22:29:20.053Z,8.31
2022-12-26T22:31:47.338Z,8.36
2022-12-26T22:34:16.789Z,8.38
2022-12-26T22:36:46.804Z,8.37
2022-12-26T22:39:17.091Z,8.30
2022-12-26T22:41:45.861Z,8.29
2022-12-26T22:44:14.906Z,8.25
2022-12-26T22:46:42.524Z,8.21
2022-12-26T22:49:10.105Z,8.16
2022-12-26T22:51:37.798Z,8.11
2022-12-26T22:54:05.674Z,8.11
2022-12-26T22:56:33.884Z,8.11
2022-12-26T22:59:02.155Z,8.12
2022-12-26T23:01:29.820Z,8.20
2022-12-26T23:03:57.768Z,8.23
2022-12-26T23:06:31.042Z,8.24
2022-12-26T23:09:01.065Z,8.20
2022-12-26T23:11:34.779Z,8.27
2022-12-26T23:14:05.254Z,8.27
2022-12-26T23:16:35.993Z,8.24
2022-12-26T23:19:38.979Z,8.13
2022-12-26T23:22:06.528Z,8.21
2022-12-26T23:24:34.233Z,8.23
2022-12-26T23:27:25.236Z,8.27
2022-12-26T23:30:13.767Z,8.29
2022-12-26T23:32:43.351Z,8.28
2022-12-26T23:35:12.337Z,8.33
2022-12-26T23:37:40.424Z,8.38
2022-12-26T23:40:09.555Z,8.41
2022-12-26T23:42:37.089Z,8.41
2022-12-26T23:45:05.290Z,8.43
2022-12-26T23:47:32.610Z,8.46
2022-12-26T23:50:00.001Z,8.51
2022-12-26T23:52:30.555Z,8.63
2022-12-26T23:54:58.520Z,8.52
2022-12-26T23:57:26.000Z,8.46
2022-12-26T23:59:53.495Z,8.41
